createdAt,value
2023-05-06T00:02:42.554Z,1.87
2023-05-06T00:07:54.260Z,1.80
2023-05-06T00:13:04.135Z,1.80
2023-05-06T00:18:12.592Z,1.90
2023-05-06T00:23:20.798Z,1.90
2023-05-06T00:28:28.663Z,2.20
2023-05-06T00:33:36.502Z,2.10
2023-05-06T00:38:45.879Z,2.10
2023-05-06T00:43:58.862Z,1.90
2023-05-06T00:49:08.182Z,1.80
2023-05-06T00:54:17.213Z,2.10
2023-05-06T00:59:27.244Z,1.77
2023-05-06T01:04:38.972Z,2.00
2023-05-06T01:09:49.061Z,1.70
2023-05-06T01:15:00.310Z,2.30
2023-05-06T01:20:12.605Z,1.70
2023-05-06T01:25:23.925Z,1.80
2023-05-06T01:30:34.612Z,2.00
2023-05-06T01:35:44.117Z,1.90
2023-05-06T01:40:55.378Z,2.00
2023-05-06T01:46:05.832Z,2.10
2023-05-06T01:51:13.859Z,1.97
2023-05-06T01:56:22.359Z,1.80
2023-05-06T02:01:30.916Z,2.00
2023-05-06T02:06:38.585Z,2.00
2023-05-06T02:11:46.957Z,1.80
2023-05-06T02:16:55.900Z,1.67
2023-05-06T02:22:05.348Z,2.00
2023-05-06T02:27:13.468Z,2.00
2023-05-06T02:32:21.284Z,1.80
2023-05-06T02:37:29.216Z,1.90
2023-05-06T02:42:37.200Z,2.10
2023-05-06T02:47:46.679Z,1.93
2023-05-06T02:52:54.492Z,1.90
2023-05-06T02:58:02.493Z,2.30
2023-05-06T03:03:10.963Z,2.00
2023-05-06T03:08:18.966Z,2.20
2023-05-06T03:13:27.172Z,1.93
2023-05-06T03:18:35.215Z,1.90
2023-05-06T03:23:43.924Z,1.73
2023-05-06T03:28:52.025Z,1.90
2023-05-06T03:34:00.728Z,2.13
2023-05-06T03:39:09.697Z,1.90
2023-05-06T03:44:18.606Z,1.87
2023-05-06T03:49:27.723Z,2.17
2023-05-06T03:54:36.807Z,2.03
2023-05-06T03:59:46.093Z,2.00
2023-05-06T04:04:55.081Z,2.03
2023-05-06T04:10:03.165Z,1.90
2023-05-06T04:15:13.129Z,2.20
2023-05-06T04:20:23.373Z,1.97
2023-05-06T04:25:31.225Z,2.10
2023-05-06T04:30:39.683Z,2.10
2023-05-06T04:35:52.554Z,2.00
2023-05-06T04:41:00.821Z,1.97
2023-05-06T04:46:10.681Z,1.80
2023-05-06T04:51:20.357Z,2.17
2023-05-06T04:56:29.421Z,2.03
2023-05-06T05:01:38.508Z,2.23
2023-05-06T05:06:48.102Z,1.80
2023-05-06T05:11:57.772Z,2.10
2023-05-06T05:17:08.604Z,1.70
2023-05-06T05:22:18.774Z,2.30
2023-05-06T05:27:28.032Z,2.10
2023-05-06T05:32:37.811Z,2.10
2023-05-06T05:37:48.189Z,1.73
2023-05-06T05:42:56.874Z,2.27
2023-05-06T05:48:08.117Z,1.73
2023-05-06T05:53:17.685Z,1.90
2023-05-06T05:58:27.909Z,2.20
2023-05-06T06:03:38.725Z,2.00
2023-05-06T06:08:47.872Z,2.33
2023-05-06T06:13:57.257Z,2.10
2023-05-06T06:19:07.490Z,2.00
2023-05-06T06:24:22.324Z,1.90
2023-05-06T06:29:33.020Z,2.37
2023-05-06T06:34:41.594Z,2.17
2023-05-06T06:39:49.628Z,2.30
2023-05-06T06:44:58.972Z,2.10
2023-05-06T06:50:08.826Z,2.40
2023-05-06T06:55:17.411Z,1.80
2023-05-06T07:00:26.155Z,1.80
2023-05-06T07:05:35.551Z,2.03
2023-05-06T07:10:44.245Z,1.97
2023-05-06T07:15:53.303Z,1.90
2023-05-06T07:21:02.278Z,1.80
2023-05-06T07:26:11.520Z,1.80
2023-05-06T07:31:22.262Z,1.97
2023-05-06T07:36:30.418Z,2.10
2023-05-06T07:41:38.539Z,1.87
2023-05-06T07:46:47.176Z,1.70
2023-05-06T07:51:56.994Z,1.83
2023-05-06T07:57:05.942Z,1.80
2023-05-06T08:02:14.036Z,1.93
2023-05-06T08:07:22.698Z,1.87
2023-05-06T08:12:32.202Z,1.90
2023-05-06T08:17:40.636Z,1.80
2023-05-06T08:22:48.564Z,1.90
2023-05-06T08:27:57.308Z,2.00
2023-05-06T08:33:06.339Z,1.70
2023-05-06T08:38:14.818Z,1.90
2023-05-06T08:43:25.664Z,1.60
2023-05-06T08:48:35.878Z,1.60
2023-05-06T08:53:46.758Z,1.67
2023-05-06T08:58:56.860Z,1.83
2023-05-06T09:04:07.642Z,1.70
2023-05-06T09:09:17.957Z,1.20
2023-05-06T09:14:30.252Z,1.40
2023-05-06T09:19:40.057Z,1.40
2023-05-06T09:24:50.650Z,1.50
2023-05-06T09:30:02.263Z,1.50
2023-05-06T09:35:11.954Z,1.43
2023-05-06T09:40:20.875Z,1.50
2023-05-06T09:45:30.736Z,1.50
2023-05-06T09:50:41.123Z,1.50
2023-05-06T09:55:50.962Z,1.50
2023-05-06T10:01:01.227Z,1.90
2023-05-06T10:06:12.346Z,1.40
2023-05-06T10:11:22.584Z,1.40
2023-05-06T10:16:31.961Z,1.10
2023-05-06T10:21:41.694Z,1.30
2023-05-06T10:26:51.987Z,1.30
2023-05-06T10:32:01.155Z,1.50
2023-05-06T10:37:12.328Z,1.60
2023-05-06T10:42:23.210Z,1.50
2023-05-06T10:47:38.412Z,1.20
2023-05-06T10:52:48.806Z,1.53
2023-05-06T10:57:58.758Z,1.20
2023-05-06T11:03:10.341Z,1.10
2023-05-06T11:08:22.196Z,1.40
2023-05-06T11:13:33.319Z,1.20
2023-05-06T11:18:41.282Z,1.23
2023-05-06T11:23:50.317Z,1.40
2023-05-06T11:29:02.574Z,1.40
2023-05-06T11:34:13.313Z,1.30
2023-05-06T11:39:22.033Z,1.27
2023-05-06T11:44:33.651Z,1.37
2023-05-06T11:49:44.614Z,1.47
2023-05-06T11:54:54.863Z,1.30
2023-05-06T12:00:02.909Z,1.10
2023-05-06T12:05:14.044Z,1.43
2023-05-06T12:10:23.140Z,1.30
2023-05-06T12:15:31.847Z,1.63
2023-05-06T12:20:39.847Z,1.30
2023-05-06T12:25:49.999Z,1.43
2023-05-06T12:30:59.035Z,1.40
2023-05-06T12:36:09.287Z,1.40
2023-05-06T12:41:26.451Z,1.20
2023-05-06T12:46:41.513Z,1.27
2023-05-06T12:51:56.161Z,1.17
2023-05-06T12:57:12.302Z,1.00
2023-05-06T13:02:22.929Z,1.10
2023-05-06T13:07:32.503Z,1.10
2023-05-06T13:12:47.686Z,1.20
2023-05-06T13:18:01.135Z,1.17
2023-05-06T13:23:10.761Z,1.60
2023-05-06T13:28:19.832Z,1.20
2023-05-06T13:33:28.376Z,1.10
2023-05-06T13:38:36.380Z,1.20
2023-05-06T13:43:44.788Z,1.40
2023-05-06T13:48:54.202Z,1.40
2023-05-06T13:54:30.962Z,1.30
2023-05-06T13:59:45.343Z,1.20
2023-05-06T14:04:58.039Z,1.30
2023-05-06T14:10:13.997Z,1.40
2023-05-06T14:21:06.418Z,1.33
2023-05-06T14:26:26.348Z,1.23
2023-05-06T14:31:41.650Z,1.40
2023-05-06T14:36:53.607Z,1.30
2023-05-06T14:42:06.993Z,1.47
2023-05-06T14:47:20.037Z,1.40
2023-05-06T14:52:29.340Z,1.10
2023-05-06T14:57:46.097Z,1.50
2023-05-06T15:03:01.589Z,1.60
2023-05-06T15:08:10.911Z,1.47
2023-05-06T15:13:20.112Z,1.40
2023-05-06T15:18:29.648Z,1.37
2023-05-06T15:23:42.151Z,1.40
2023-05-06T15:28:59.899Z,1.30
2023-05-06T15:34:15.094Z,1.40
2023-05-06T15:39:24.463Z,1.60
2023-05-06T15:44:34.676Z,1.50
2023-05-06T15:54:58.856Z,1.77
2023-05-06T16:00:06.604Z,1.70
2023-05-06T16:05:20.817Z,1.40
2023-05-06T16:10:40.827Z,1.60
2023-05-06T16:16:01.247Z,1.50
2023-05-06T16:21:14.270Z,1.50
2023-05-06T16:26:44.015Z,1.83
2023-05-06T16:31:54.280Z,1.57
2023-05-06T16:37:04.192Z,1.53
2023-05-06T16:42:13.690Z,1.50
2023-05-06T16:47:23.745Z,1.50
2023-05-06T16:52:33.432Z,1.40
2023-05-06T16:57:42.880Z,1.40
2023-05-06T17:02:52.850Z,1.70
2023-05-06T17:08:02.132Z,1.50
2023-05-06T17:13:12.059Z,1.33
2023-05-06T17:18:22.117Z,1.30
2023-05-06T17:23:31.319Z,1.60
2023-05-06T17:28:41.101Z,1.53
2023-05-06T17:33:50.242Z,1.53
2023-05-06T17:39:01.570Z,1.50
2023-05-06T17:44:11.650Z,1.60
2023-05-06T17:49:21.154Z,1.63
2023-05-06T17:54:32.739Z,1.50
2023-05-06T17:59:43.024Z,1.50
2023-05-06T18:04:53.933Z,1.67
2023-05-06T18:10:02.958Z,1.60
2023-05-06T18:15:12.623Z,2.47
2023-05-06T18:20:21.709Z,3.27
2023-05-06T18:25:30.406Z,2.40
2023-05-06T18:30:39.181Z,2.00
2023-05-06T18:35:47.265Z,2.00
2023-05-06T18:40:55.374Z,2.00
2023-05-06T18:46:05.058Z,1.80
2023-05-06T18:51:14.974Z,1.90
2023-05-06T18:56:24.305Z,1.80
2023-05-06T19:01:34.386Z,1.60
2023-05-06T19:06:44.415Z,1.60
2023-05-06T19:12:00.370Z,1.90
2023-05-06T19:17:21.593Z,1.90
2023-05-06T19:22:34.200Z,2.00
2023-05-06T19:27:44.828Z,1.87
2023-05-06T19:32:55.511Z,1.87
2023-05-06T19:38:09.446Z,2.00
2023-05-06T19:43:18.142Z,1.77
2023-05-06T19:48:29.512Z,1.70
2023-05-06T19:53:56.362Z,1.80
2023-05-06T19:59:16.582Z,1.80
2023-05-06T20:04:31.284Z,1.63
2023-05-06T20:09:41.623Z,1.40
2023-05-06T20:14:51.219Z,1.83
2023-05-06T20:20:02.590Z,1.70
2023-05-06T20:25:11.308Z,1.70
2023-05-06T20:30:21.372Z,1.53
2023-05-06T20:35:29.649Z,1.70
2023-05-06T20:40:37.980Z,1.67
2023-05-06T20:45:47.219Z,1.53
2023-05-06T20:51:03.186Z,1.50
2023-05-06T20:56:15.320Z,1.67
2023-05-06T21:01:26.848Z,1.63
2023-05-06T21:06:36.730Z,1.70
2023-05-06T21:11:45.411Z,1.40
2023-05-06T21:16:56.869Z,1.53
2023-05-06T21:22:07.681Z,1.67
2023-05-06T21:27:18.954Z,1.70
2023-05-06T21:32:30.256Z,1.50
2023-05-06T21:37:39.928Z,1.50
2023-05-06T21:42:48.267Z,1.50
2023-05-06T21:47:57.225Z,1.60
2023-05-06T21:53:06.698Z,1.70
2023-05-06T21:58:15.504Z,1.70
2023-05-06T22:03:25.118Z,1.50
2023-05-06T22:08:36.554Z,1.60
2023-05-06T22:13:46.738Z,1.40
2023-05-06T22:18:56.254Z,1.80
2023-05-06T22:24:05.147Z,1.60
2023-05-06T22:29:14.215Z,1.63
2023-05-06T22:34:23.673Z,1.50
2023-05-06T22:39:31.432Z,1.40
2023-05-06T22:44:40.440Z,1.57
2023-05-06T22:49:51.508Z,1.57
2023-05-06T22:55:01.914Z,1.70
2023-05-06T23:00:12.845Z,1.80
2023-05-06T23:05:22.316Z,1.50
2023-05-06T23:10:32.204Z,1.43
2023-05-06T23:15:43.350Z,1.67
2023-05-06T23:20:52.438Z,1.63
2023-05-06T23:26:02.104Z,1.77
2023-05-06T23:31:13.000Z,2.00
2023-05-06T23:36:22.235Z,1.90
2023-05-06T23:41:31.376Z,1.50
2023-05-06T23:46:40.837Z,1.70
2023-05-06T23:51:49.434Z,1.87
2023-05-06T23:56:59.418Z,1.70
